ENSSENBS

Guest
Details From ENSS - Svartnes
To ENBS - Batsfjord
Flight Number -
Tags Generated
Created
Modified
Stats Distance 31 nm / 57 km
Max Altitude 0 ft / 0 m
Waypoints 2
Social Downloads 0
Likes 0
Share VATSIM

Download

Looking for another format? Having issues loading an existing format? Contact us
Advertisement - Login to hide

Notes

Generated

Route

ENSS ENBS

ID Type Via Altitude Latitude Longitude Leg Dist Tot Dist Heading (true) Name
O ENSS APT - 0 ft / 0 m 70.35988˚ 31.04175˚ - 0 nm - -
O ENBS APT - 0 ft / 0 m 70.59703˚ 29.68330˚ 30 nm 30 nm 298° / 297° -

Altitude Profile

Advertisement - Login to hide

ENSS

Details ICAO ENSS (VAW)
Name SVARTNES
Region Norway
Timezone Europe/Oslo (UTC+1.0)
Stats Elevation 42 ft / 13 m (AMSL)
Location 70.355031° 31.046076°
Runways 1
Magnetic Variation 15.877° E

METAR

ENSS 131150Z 14012KT 9999 VCSH SCT014 BKN030 01/M01 Q0974 RMK WIND 500FT 17013KT

Decode

TAF

Not found

Departure Runways

ID Width Length Bearing (true) Bearing (mag) Surface Threshold Offset Overrun Length
15 98 ft / 30 m 3,695 ft / 1,126 m 163.29° 147.41° Asphalt 197 ft / 60 m 0 ft / 0 m
33 98 ft / 30 m 3,695 ft / 1,126 m 343.30° 327.42° Asphalt 148 ft / 45 m 0 ft / 0 m

ENBS

Details ICAO ENBS (BJF)
Name BATSFJORD
Region Norway
Timezone Europe/Oslo (UTC+1.0)
Stats Elevation 490 ft / 149 m (AMSL)
Location 70.600134° 29.696206°
Runways 1
Magnetic Variation 15.259° E

METAR

ENBS 131150Z 15008KT 9999 SCT020 M03/M04 Q0973

Decode

TAF

Not found

Destination Runways

ID Width Length Bearing (true) Bearing (mag) Surface Threshold Offset Overrun Length
03 98 ft / 30 m 3,596 ft / 1,096 m 33.09° 17.83° Asphalt 0 ft / 0 m 394 ft / 120 m
21 98 ft / 30 m 3,596 ft / 1,096 m 213.10° 197.84° Asphalt 0 ft / 0 m 394 ft / 120 m

Approach Navaids

Runway Type Ident Frequency Range Bearing (true) Bearing (mag) Slope Elevation
21 Localiser BT 111.10 MHz 18 nm / 33 km 223.97° 208.71° - 514 ft / 157 m (AMSL)